createdAt,value
2019-03-30T00:00:26.879Z,11.33
2019-03-30T00:04:31.998Z,9.27
2019-03-30T00:08:36.747Z,13.97
2019-03-30T00:12:42.012Z,10.93
2019-03-30T00:16:47.221Z,9.83
2019-03-30T00:20:52.029Z,12.50
2019-03-30T00:24:56.788Z,11.20
2019-03-30T00:29:01.633Z,11.47
2019-03-30T00:33:06.382Z,10.87
2019-03-30T00:37:11.125Z,12.33
2019-03-30T00:41:15.901Z,11.17
2019-03-30T00:45:20.646Z,12.90
2019-03-30T00:49:25.487Z,15.83
2019-03-30T00:53:30.235Z,14.80
2019-03-30T00:57:35.099Z,10.43
2019-03-30T01:01:39.859Z,14.40
2019-03-30T01:05:44.559Z,14.43
2019-03-30T01:09:49.291Z,11.80
2019-03-30T01:13:54.048Z,14.00
2019-03-30T01:17:59.188Z,13.77
2019-03-30T01:22:04.103Z,13.20
2019-03-30T01:26:08.815Z,12.43
2019-03-30T01:30:23.038Z,21.90
2019-03-30T01:34:20.088Z,11.70
2019-03-30T01:38:24.849Z,12.07
2019-03-30T01:42:29.770Z,10.73
2019-03-30T01:46:34.519Z,10.53
2019-03-30T01:50:39.269Z,11.50
2019-03-30T01:54:44.030Z,11.83
2019-03-30T01:58:48.765Z,10.40
2019-03-30T02:02:53.509Z,10.73
2019-03-30T02:06:58.255Z,12.30
2019-03-30T02:11:03.493Z,19.60
2019-03-30T02:15:08.942Z,30.77
2019-03-30T02:19:13.705Z,18.73
2019-03-30T02:23:18.465Z,18.53
2019-03-30T02:27:23.186Z,15.90
2019-03-30T02:31:28.005Z,12.80
2019-03-30T02:35:32.927Z,12.93
2019-03-30T02:39:37.657Z,12.70
2019-03-30T02:43:42.398Z,16.03
2019-03-30T02:47:47.474Z,14.27
2019-03-30T02:51:52.259Z,11.87
2019-03-30T02:55:56.972Z,13.63
2019-03-30T03:00:01.849Z,11.20
2019-03-30T03:04:06.546Z,12.70
2019-03-30T03:08:13.929Z,14.13
2019-03-30T03:12:18.696Z,15.33
2019-03-30T03:16:27.105Z,12.57
2019-03-30T03:20:30.909Z,14.07
2019-03-30T03:24:35.632Z,12.87
2019-03-30T03:28:40.395Z,14.63
2019-03-30T03:32:45.493Z,11.83
2019-03-30T03:36:50.340Z,11.80
2019-03-30T03:40:55.124Z,11.10
2019-03-30T03:44:59.842Z,13.43
2019-03-30T03:49:04.592Z,13.30
2019-03-30T03:53:10.312Z,12.70
2019-03-30T03:57:16.715Z,11.83
2019-03-30T04:01:23.025Z,10.23
2019-03-30T04:05:29.270Z,12.23
2019-03-30T04:09:36.550Z,12.47
2019-03-30T04:13:43.237Z,15.73
2019-03-30T04:17:47.990Z,11.27
2019-03-30T04:21:52.744Z,11.57
2019-03-30T04:25:57.509Z,10.97
2019-03-30T04:30:02.302Z,10.70
2019-03-30T04:34:07.051Z,12.10
2019-03-30T04:38:14.266Z,12.40
2019-03-30T04:42:18.268Z,14.33
2019-03-30T04:46:23.019Z,15.17
2019-03-30T04:50:27.770Z,11.73
2019-03-30T04:54:32.527Z,12.27
2019-03-30T04:58:37.330Z,16.70
2019-03-30T05:02:42.074Z,11.73
2019-03-30T05:06:46.833Z,10.20
2019-03-30T05:10:51.589Z,11.00
2019-03-30T05:14:56.375Z,16.80
2019-03-30T05:19:01.317Z,11.67
2019-03-30T05:23:06.109Z,8.83
2019-03-30T05:27:11.146Z,12.57
2019-03-30T05:31:15.879Z,11.63
2019-03-30T05:35:20.820Z,10.60
2019-03-30T05:39:25.659Z,13.03
2019-03-30T05:43:30.372Z,13.83
2019-03-30T05:47:35.275Z,13.33
2019-03-30T05:51:40.078Z,12.43
2019-03-30T05:55:44.866Z,11.30
2019-03-30T05:59:49.658Z,14.03
2019-03-30T06:03:54.429Z,11.97
2019-03-30T06:07:59.206Z,14.73
2019-03-30T06:12:04.503Z,11.63
2019-03-30T06:16:09.367Z,11.43
2019-03-30T06:20:14.210Z,10.93
2019-03-30T06:24:18.960Z,11.87
2019-03-30T06:28:23.721Z,12.67
2019-03-30T06:32:28.778Z,12.37
2019-03-30T06:36:33.534Z,13.50
2019-03-30T06:40:38.480Z,12.23
2019-03-30T06:44:43.210Z,13.03
2019-03-30T06:48:47.982Z,14.43
2019-03-30T06:52:58.018Z,13.53
2019-03-30T06:56:59.388Z,14.63
2019-03-30T07:01:04.198Z,16.97
2019-03-30T07:05:09.676Z,16.20
2019-03-30T07:09:15.738Z,15.77
2019-03-30T07:13:20.609Z,15.93
2019-03-30T07:17:26.484Z,19.83
2019-03-30T07:21:31.624Z,14.63
2019-03-30T07:25:37.047Z,14.20
2019-03-30T07:29:41.863Z,14.87
2019-03-30T07:33:46.634Z,19.40
2019-03-30T07:37:51.546Z,16.27
2019-03-30T07:41:56.586Z,14.50
2019-03-30T07:46:01.311Z,14.97
2019-03-30T07:50:06.568Z,21.33
2019-03-30T07:54:11.367Z,15.37
2019-03-30T07:58:16.128Z,14.87
2019-03-30T08:02:21.023Z,13.53
2019-03-30T08:06:25.983Z,15.63
2019-03-30T08:10:30.772Z,16.93
2019-03-30T08:14:35.630Z,22.20
2019-03-30T08:18:40.469Z,17.40
2019-03-30T08:22:45.362Z,17.67
2019-03-30T08:26:50.582Z,19.20
2019-03-30T08:30:55.364Z,19.70
2019-03-30T08:35:00.526Z,18.80
2019-03-30T08:39:06.881Z,17.23
2019-03-30T08:43:11.671Z,18.07
2019-03-30T08:47:16.534Z,17.77
2019-03-30T08:51:21.634Z,18.10
2019-03-30T08:55:26.442Z,18.37
2019-03-30T08:59:31.204Z,17.33
2019-03-30T09:03:35.988Z,19.47
2019-03-30T09:07:40.781Z,17.57
2019-03-30T09:11:45.864Z,17.97
2019-03-30T09:15:50.593Z,15.63
2019-03-30T09:19:55.374Z,16.87
2019-03-30T09:24:09.401Z,17.63
2019-03-30T09:28:06.933Z,15.70
2019-03-30T09:32:14.569Z,18.20
2019-03-30T09:36:18.212Z,18.63
2019-03-30T09:40:22.974Z,15.97
2019-03-30T09:44:27.758Z,14.67
2019-03-30T09:48:32.529Z,18.03
2019-03-30T09:52:37.254Z,16.17
2019-03-30T09:56:42.534Z,17.37
2019-03-30T10:00:47.776Z,15.00
2019-03-30T10:04:53.969Z,16.73
2019-03-30T10:08:59.113Z,15.60
2019-03-30T10:13:03.830Z,13.97
2019-03-30T10:17:08.619Z,15.17
2019-03-30T10:21:13.395Z,16.67
2019-03-30T10:25:18.893Z,18.30
2019-03-30T10:29:25.790Z,14.93
2019-03-30T10:33:32.469Z,17.60
2019-03-30T10:37:38.084Z,15.10
2019-03-30T10:41:42.862Z,16.30
2019-03-30T10:45:47.789Z,15.30
2019-03-30T10:49:53.153Z,15.97
2019-03-30T10:53:58.020Z,14.20
2019-03-30T10:58:03.339Z,15.27
2019-03-30T11:02:08.086Z,14.00
2019-03-30T11:06:13.088Z,15.00
2019-03-30T11:10:18.225Z,14.47
2019-03-30T11:14:23.179Z,12.27
2019-03-30T11:18:28.326Z,16.60
2019-03-30T11:22:33.735Z,19.37
2019-03-30T11:26:38.604Z,12.47
2019-03-30T11:30:43.481Z,15.47
2019-03-30T11:34:48.244Z,14.20
2019-03-30T11:38:53.157Z,16.07
2019-03-30T11:42:57.909Z,15.57
2019-03-30T11:47:02.959Z,11.53
2019-03-30T11:51:07.808Z,13.70
2019-03-30T11:55:21.839Z,14.20
2019-03-30T11:59:20.119Z,15.77
2019-03-30T12:03:24.896Z,13.60
2019-03-30T12:07:32.260Z,15.63
2019-03-30T12:11:38.550Z,14.07
2019-03-30T12:15:43.305Z,11.33
2019-03-30T12:19:48.200Z,16.27
2019-03-30T12:23:52.967Z,16.97
2019-03-30T12:27:58.159Z,17.13
2019-03-30T12:32:02.910Z,16.90
2019-03-30T12:36:08.153Z,14.17
2019-03-30T12:40:13.700Z,14.53
2019-03-30T12:44:18.445Z,13.43
2019-03-30T12:48:23.197Z,17.50
2019-03-30T12:52:27.959Z,15.80
2019-03-30T12:56:32.681Z,13.60
2019-03-30T13:00:37.589Z,14.50
2019-03-30T13:04:42.331Z,13.10
2019-03-30T13:08:47.189Z,13.33
2019-03-30T13:12:51.957Z,16.10
2019-03-30T13:16:57.691Z,12.07
2019-03-30T13:21:04.193Z,11.87
2019-03-30T13:25:09.586Z,12.77
2019-03-30T13:29:15.104Z,12.53
2019-03-30T13:33:19.950Z,12.43
2019-03-30T13:37:24.715Z,14.83
2019-03-30T13:41:29.492Z,10.80
2019-03-30T13:45:34.378Z,10.63
2019-03-30T13:49:39.085Z,10.53
2019-03-30T13:53:43.889Z,11.47
2019-03-30T13:57:48.674Z,9.33
2019-03-30T14:01:53.808Z,8.70
2019-03-30T14:05:58.565Z,10.17
2019-03-30T14:10:03.428Z,9.05
2019-03-30T14:14:08.713Z,8.87
2019-03-30T14:18:13.589Z,9.27
2019-03-30T14:22:18.456Z,8.23
2019-03-30T14:26:31.210Z,8.18
2019-03-30T14:30:29.828Z,7.50
2019-03-30T14:34:34.572Z,7.10
2019-03-30T14:38:39.323Z,5.22
2019-03-30T14:42:44.107Z,8.20
2019-03-30T14:46:48.980Z,7.63
2019-03-30T14:50:53.730Z,8.18
2019-03-30T14:54:58.518Z,7.65
2019-03-30T14:59:09.911Z,7.07
2019-03-30T15:03:09.853Z,5.97
2019-03-30T15:07:14.594Z,8.58
2019-03-30T15:11:19.413Z,6.00
2019-03-30T15:15:24.168Z,6.85
2019-03-30T15:19:28.935Z,5.70
2019-03-30T15:23:33.699Z,6.17
2019-03-30T15:27:38.596Z,4.50
2019-03-30T15:31:43.321Z,7.27
2019-03-30T15:35:48.200Z,5.63
2019-03-30T15:39:53.069Z,6.77
2019-03-30T15:43:57.803Z,7.73
2019-03-30T15:48:02.974Z,10.03
2019-03-30T15:52:13.741Z,6.40
2019-03-30T15:56:14.634Z,7.25
2019-03-30T16:00:19.577Z,8.03
2019-03-30T16:04:24.324Z,8.38
2019-03-30T16:08:29.101Z,4.75
2019-03-30T16:12:33.868Z,5.53
2019-03-30T16:16:38.636Z,5.93
2019-03-30T16:20:43.503Z,5.03
2019-03-30T16:24:48.430Z,5.43
2019-03-30T16:28:53.270Z,5.93
2019-03-30T16:32:59.095Z,6.03
2019-03-30T16:37:03.977Z,3.95
2019-03-30T16:41:08.827Z,5.63
2019-03-30T16:45:15.197Z,4.97
2019-03-30T16:49:20.091Z,6.07
2019-03-30T16:53:24.930Z,4.15
2019-03-30T16:57:42.396Z,4.87
2019-03-30T17:01:36.313Z,5.47
2019-03-30T17:05:41.180Z,5.73
2019-03-30T17:09:46.103Z,4.97
2019-03-30T17:13:50.871Z,6.03
2019-03-30T17:17:57.369Z,5.17
2019-03-30T17:22:02.101Z,5.47
2019-03-30T17:26:07.617Z,4.93
2019-03-30T17:30:13.347Z,4.87
2019-03-30T17:34:18.916Z,4.33
2019-03-30T17:38:23.608Z,3.20
2019-03-30T17:42:28.320Z,5.10
2019-03-30T17:46:33.090Z,6.43
2019-03-30T17:50:37.984Z,6.57
2019-03-30T17:54:42.753Z,7.10
2019-03-30T17:58:47.473Z,6.93
2019-03-30T18:02:52.238Z,6.73
2019-03-30T18:06:57.060Z,8.07
2019-03-30T18:11:04.016Z,5.03
2019-03-30T18:15:09.473Z,8.07
2019-03-30T18:19:14.331Z,8.23
2019-03-30T18:23:19.207Z,6.70
2019-03-30T18:27:23.962Z,9.93
2019-03-30T18:31:28.696Z,10.10
2019-03-30T18:35:34.425Z,9.77
2019-03-30T18:39:39.534Z,10.87
2019-03-30T18:43:44.323Z,10.10
2019-03-30T18:47:49.885Z,9.20
2019-03-30T18:51:55.035Z,8.50
2019-03-30T18:55:59.794Z,11.70
2019-03-30T19:00:04.990Z,10.70
2019-03-30T19:04:09.733Z,7.83
2019-03-30T19:08:14.469Z,9.93
2019-03-30T19:12:19.238Z,9.60
2019-03-30T19:16:24.024Z,12.97
2019-03-30T19:20:28.833Z,12.67
2019-03-30T19:24:33.608Z,9.87
2019-03-30T19:28:38.375Z,9.53
2019-03-30T19:32:43.146Z,8.77
2019-03-30T19:36:47.907Z,11.60
2019-03-30T19:40:52.662Z,10.13
2019-03-30T19:44:58.139Z,11.50
2019-03-30T19:49:03.000Z,8.53
2019-03-30T19:53:07.768Z,12.23
2019-03-30T19:57:12.573Z,10.97
2019-03-30T20:01:17.386Z,13.90
2019-03-30T20:05:22.152Z,8.77
2019-03-30T20:09:26.912Z,11.40
2019-03-30T20:13:31.776Z,12.60
2019-03-30T20:17:36.596Z,10.30
2019-03-30T20:21:41.471Z,9.33
2019-03-30T20:25:46.232Z,9.20
2019-03-30T20:29:50.998Z,12.13
2019-03-30T20:33:56.198Z,9.43
2019-03-30T20:38:01.141Z,11.97
2019-03-30T20:42:06.187Z,11.03
2019-03-30T20:46:10.974Z,14.77
2019-03-30T20:50:16.002Z,13.27
2019-03-30T20:54:20.790Z,9.27
2019-03-30T20:58:25.551Z,8.47
2019-03-30T21:02:30.376Z,9.97
2019-03-30T21:06:35.094Z,8.73
2019-03-30T21:10:40.304Z,8.17
2019-03-30T21:14:45.047Z,8.73
2019-03-30T21:18:49.828Z,10.40
2019-03-30T21:22:54.591Z,9.77
2019-03-30T21:26:59.330Z,10.47
2019-03-30T21:31:04.252Z,11.27
2019-03-30T21:35:09.617Z,9.33
2019-03-30T21:39:14.409Z,12.00
2019-03-30T21:43:19.771Z,10.97
2019-03-30T21:47:24.668Z,10.87
2019-03-30T21:51:29.440Z,10.83
2019-03-30T21:55:34.571Z,10.17
2019-03-30T21:59:39.358Z,11.90
2019-03-30T22:03:44.211Z,11.27
2019-03-30T22:07:49.152Z,12.70
2019-03-30T22:11:54.015Z,9.27
2019-03-30T22:15:58.782Z,9.73
2019-03-30T22:20:05.128Z,12.33
2019-03-30T22:24:10.001Z,13.10
2019-03-30T22:28:14.771Z,11.00
2019-03-30T22:32:19.636Z,12.37
2019-03-30T22:36:24.774Z,12.03
2019-03-30T22:40:29.903Z,12.53
2019-03-30T22:44:34.657Z,10.83
2019-03-30T22:48:39.428Z,11.83
2019-03-30T22:52:44.308Z,11.17
2019-03-30T22:56:49.092Z,10.80
2019-03-30T23:01:05.851Z,10.73
2019-03-30T23:05:10.882Z,9.33
2019-03-30T23:09:15.652Z,11.07
2019-03-30T23:13:20.378Z,11.60
2019-03-30T23:17:25.228Z,10.87
2019-03-30T23:21:30.017Z,10.40
2019-03-30T23:25:34.821Z,11.70
2019-03-30T23:29:39.588Z,13.73
2019-03-30T23:33:44.474Z,14.50
2019-03-30T23:37:49.584Z,11.43
2019-03-30T23:41:54.427Z,13.00
2019-03-30T23:45:59.285Z,12.27
2019-03-30T23:50:04.103Z,12.10
2019-03-30T23:54:13.887Z,11.67
2019-03-30T23:58:18.715Z,13.10
